createdAt,value
2019-03-27T00:00:40.529Z,21.00
2019-03-27T00:03:08.987Z,18.87
2019-03-27T00:05:37.546Z,16.30
2019-03-27T00:08:06.219Z,20.70
2019-03-27T00:10:34.743Z,18.83
2019-03-27T00:13:03.629Z,18.00
2019-03-27T00:15:32.155Z,17.63
2019-03-27T00:18:00.624Z,22.60
2019-03-27T00:20:29.699Z,19.57
2019-03-27T00:22:58.238Z,17.00
2019-03-27T00:25:26.774Z,17.07
2019-03-27T00:27:55.451Z,16.20
2019-03-27T00:30:23.984Z,16.53
2019-03-27T00:32:52.514Z,15.80
2019-03-27T00:35:21.257Z,18.30
2019-03-27T00:37:49.716Z,16.43
2019-03-27T00:40:18.318Z,18.43
2019-03-27T00:42:46.883Z,15.63
2019-03-27T00:45:25.722Z,15.63
2019-03-27T00:47:45.856Z,13.77
2019-03-27T00:50:14.391Z,18.77
2019-03-27T00:52:43.128Z,17.27
2019-03-27T00:55:13.183Z,18.90
2019-03-27T00:57:41.731Z,17.70
2019-03-27T01:00:40.595Z,31.23
2019-03-27T01:03:09.165Z,20.77
2019-03-27T01:05:37.706Z,22.97
2019-03-27T01:08:06.401Z,16.77
2019-03-27T01:10:35.035Z,17.30
2019-03-27T01:13:03.568Z,17.87
2019-03-27T01:15:39.579Z,15.67
2019-03-27T01:18:02.323Z,19.80
2019-03-27T01:20:30.895Z,21.17
2019-03-27T01:22:59.379Z,22.67
2019-03-27T01:25:28.310Z,18.43
2019-03-27T01:27:56.838Z,17.20
2019-03-27T01:30:25.372Z,21.70
2019-03-27T01:32:54.897Z,19.97
2019-03-27T01:35:23.431Z,16.37
2019-03-27T01:37:51.888Z,22.07
2019-03-27T01:40:20.372Z,20.57
2019-03-27T01:42:48.827Z,17.93
2019-03-27T01:45:17.352Z,16.93
2019-03-27T01:47:45.837Z,20.50
2019-03-27T01:50:14.451Z,20.87
2019-03-27T01:52:42.999Z,22.03
2019-03-27T01:55:11.703Z,15.97
2019-03-27T01:57:40.174Z,16.10
2019-03-27T02:00:09.086Z,20.50
2019-03-27T02:02:37.652Z,33.77
2019-03-27T02:05:09.379Z,20.23
2019-03-27T02:07:37.944Z,23.30
2019-03-27T02:10:09.643Z,22.93
2019-03-27T02:12:38.213Z,22.33
2019-03-27T02:15:08.418Z,18.97
2019-03-27T02:17:37.100Z,19.90
2019-03-27T02:20:07.436Z,20.03
2019-03-27T02:22:36.156Z,21.23
2019-03-27T02:25:06.073Z,20.93
2019-03-27T02:27:34.420Z,21.20
2019-03-27T02:30:03.068Z,19.87
2019-03-27T02:32:31.725Z,18.13
2019-03-27T02:35:00.533Z,25.90
2019-03-27T02:37:29.169Z,20.47
2019-03-27T02:39:57.776Z,20.37
2019-03-27T02:42:26.480Z,19.10
2019-03-27T02:44:55.127Z,23.57
2019-03-27T02:47:23.715Z,20.17
2019-03-27T02:49:52.347Z,21.10
2019-03-27T02:52:21.250Z,22.77
2019-03-27T02:54:50.465Z,22.57
2019-03-27T02:57:19.519Z,25.70
2019-03-27T02:59:48.111Z,26.93
2019-03-27T03:02:16.862Z,22.33
2019-03-27T03:04:45.429Z,23.83
2019-03-27T03:07:14.081Z,22.07
2019-03-27T03:09:42.747Z,20.57
2019-03-27T03:12:11.390Z,25.27
2019-03-27T03:14:40.096Z,28.10
2019-03-27T03:17:08.796Z,24.10
2019-03-27T03:19:37.332Z,18.53
2019-03-27T03:22:05.883Z,24.50
2019-03-27T03:24:35.133Z,20.07
2019-03-27T03:27:03.789Z,23.27
2019-03-27T03:29:32.417Z,23.70
2019-03-27T03:32:01.864Z,23.03
2019-03-27T03:34:30.871Z,26.67
2019-03-27T03:36:59.465Z,21.60
2019-03-27T03:39:28.218Z,24.87
2019-03-27T03:41:56.774Z,23.57
2019-03-27T03:44:25.014Z,26.40
2019-03-27T03:47:00.113Z,28.43
2019-03-27T03:49:24.043Z,27.07
2019-03-27T03:51:52.930Z,21.33
2019-03-27T03:54:21.658Z,24.00
2019-03-27T03:56:53.223Z,27.73
2019-03-27T03:59:23.912Z,26.63
2019-03-27T04:01:54.355Z,23.27
2019-03-27T04:07:10.843Z,24.93
2019-03-27T04:09:39.478Z,25.53
2019-03-27T04:12:08.218Z,27.43
2019-03-27T04:14:36.835Z,25.93
2019-03-27T04:17:16.843Z,28.13
2019-03-27T04:19:36.238Z,24.77
2019-03-27T04:22:04.842Z,26.93
2019-03-27T04:24:33.468Z,27.63
2019-03-27T04:27:02.187Z,27.67
2019-03-27T04:29:30.845Z,25.90
2019-03-27T04:31:59.407Z,29.10
2019-03-27T04:34:28.035Z,28.00
2019-03-27T04:36:56.705Z,28.97
2019-03-27T04:39:25.338Z,28.53
2019-03-27T04:41:53.967Z,27.50
2019-03-27T04:44:22.575Z,28.17
2019-03-27T04:46:51.121Z,25.23
2019-03-27T04:49:19.747Z,21.93
2019-03-27T04:51:48.410Z,31.50
2019-03-27T04:54:16.967Z,26.13
2019-03-27T04:56:45.537Z,27.70
2019-03-27T04:59:14.146Z,26.90
2019-03-27T05:01:42.715Z,26.93
2019-03-27T05:04:11.653Z,25.63
2019-03-27T05:06:40.286Z,23.77
2019-03-27T05:09:08.802Z,24.63
2019-03-27T05:11:37.457Z,25.00
2019-03-27T05:14:06.122Z,23.97
2019-03-27T05:16:34.756Z,27.53
2019-03-27T05:19:03.376Z,26.00
2019-03-27T05:21:32.047Z,25.33
2019-03-27T05:24:00.679Z,24.20
2019-03-27T05:26:29.228Z,25.53
2019-03-27T05:28:57.918Z,27.60
2019-03-27T05:31:26.482Z,21.90
2019-03-27T05:33:55.040Z,24.17
2019-03-27T05:36:23.656Z,23.03
2019-03-27T05:38:52.279Z,24.37
2019-03-27T05:41:20.836Z,25.70
2019-03-27T05:43:49.760Z,27.30
2019-03-27T05:46:18.401Z,26.20
2019-03-27T05:48:46.966Z,27.00
2019-03-27T05:51:15.545Z,22.53
2019-03-27T05:53:44.176Z,22.03
2019-03-27T05:56:12.816Z,27.33
2019-03-27T05:58:41.708Z,23.67
2019-03-27T06:01:10.308Z,25.80
2019-03-27T06:03:38.871Z,21.53
2019-03-27T06:06:07.527Z,22.80
2019-03-27T06:08:36.148Z,20.20
2019-03-27T06:11:04.860Z,19.63
2019-03-27T06:13:33.526Z,27.37
2019-03-27T06:16:02.091Z,21.33
2019-03-27T06:18:30.721Z,20.60
2019-03-27T06:20:59.404Z,22.07
2019-03-27T06:23:27.966Z,23.73
2019-03-27T06:25:56.673Z,22.93
2019-03-27T06:28:25.281Z,23.87
2019-03-27T06:30:53.926Z,23.87
2019-03-27T06:33:22.739Z,20.00
2019-03-27T06:35:51.373Z,22.13
2019-03-27T06:38:19.929Z,21.63
2019-03-27T06:40:48.561Z,20.20
2019-03-27T06:43:17.300Z,21.10
2019-03-27T06:45:46.324Z,23.00
2019-03-27T06:48:25.746Z,22.97
2019-03-27T06:50:46.409Z,21.17
2019-03-27T06:53:14.980Z,22.73
2019-03-27T06:55:43.611Z,24.60
2019-03-27T06:58:12.559Z,23.00
2019-03-27T07:00:41.180Z,21.70
2019-03-27T07:03:09.871Z,20.53
2019-03-27T07:05:38.471Z,18.90
2019-03-27T07:08:07.221Z,23.50
2019-03-27T07:10:35.719Z,23.43
2019-03-27T07:13:04.528Z,22.57
2019-03-27T07:15:35.766Z,21.00
2019-03-27T07:18:03.587Z,20.03
2019-03-27T07:20:32.429Z,22.10
2019-03-27T07:23:00.994Z,22.90
2019-03-27T07:25:29.617Z,23.63
2019-03-27T07:27:58.679Z,21.93
2019-03-27T07:30:27.232Z,22.57
2019-03-27T07:32:55.796Z,24.37
2019-03-27T07:35:24.397Z,22.50
2019-03-27T07:37:53.314Z,21.87
2019-03-27T07:40:21.875Z,22.90
2019-03-27T07:42:50.952Z,23.73
2019-03-27T07:45:19.649Z,19.27
2019-03-27T07:47:48.392Z,25.60
2019-03-27T07:50:17.155Z,24.00
2019-03-27T07:52:45.723Z,24.10
2019-03-27T07:55:19.519Z,23.03
2019-03-27T07:57:44.833Z,25.75
2019-03-27T08:00:16.605Z,22.97
2019-03-27T08:02:45.238Z,24.37
2019-03-27T08:05:14.436Z,20.00
2019-03-27T08:07:43.136Z,24.83
2019-03-27T08:10:12.129Z,20.47
2019-03-27T08:12:40.799Z,26.03
2019-03-27T08:15:10.417Z,19.63
2019-03-27T08:17:39.036Z,17.57
2019-03-27T08:20:08.586Z,17.73
2019-03-27T08:22:37.208Z,16.77
2019-03-27T08:25:08.116Z,17.40
2019-03-27T08:27:36.856Z,19.63
2019-03-27T08:30:13.866Z,19.50
2019-03-27T08:32:42.830Z,14.10
2019-03-27T08:35:11.724Z,19.00
2019-03-27T08:37:40.434Z,15.30
2019-03-27T08:40:09.545Z,17.37
2019-03-27T08:42:38.237Z,14.23
2019-03-27T08:45:10.530Z,15.40
2019-03-27T08:47:39.361Z,12.87
2019-03-27T08:50:09.856Z,13.70
2019-03-27T08:52:38.412Z,14.60
2019-03-27T08:55:07.717Z,14.73
2019-03-27T08:57:36.442Z,13.43
2019-03-27T09:00:07.804Z,13.63
2019-03-27T09:02:36.966Z,12.83
2019-03-27T09:05:08.077Z,13.37
2019-03-27T09:07:36.633Z,15.93
2019-03-27T09:10:07.391Z,12.87
2019-03-27T09:12:36.392Z,14.50
2019-03-27T09:15:07.400Z,13.00
2019-03-27T09:17:36.209Z,13.03
2019-03-27T09:20:07.416Z,11.63
2019-03-27T09:22:36.043Z,12.60
2019-03-27T09:25:06.403Z,8.17
2019-03-27T09:27:35.079Z,7.17
2019-03-27T09:30:05.447Z,10.43
2019-03-27T09:32:34.273Z,8.00
2019-03-27T09:35:02.973Z,7.37
2019-03-27T09:37:31.630Z,6.47
2019-03-27T09:40:00.412Z,7.47
2019-03-27T09:42:28.990Z,8.63
2019-03-27T09:44:57.690Z,8.30
2019-03-27T09:47:26.353Z,7.72
2019-03-27T09:49:54.884Z,7.05
2019-03-27T09:52:23.440Z,10.10
2019-03-27T09:54:52.024Z,7.90
2019-03-27T09:57:20.580Z,8.20
2019-03-27T09:59:49.123Z,8.18
2019-03-27T10:02:18.080Z,7.92
2019-03-27T10:04:46.696Z,6.03
2019-03-27T10:07:15.291Z,5.83
2019-03-27T10:09:43.872Z,9.18
2019-03-27T10:12:12.420Z,6.92
2019-03-27T10:14:41.046Z,5.22
2019-03-27T10:17:09.694Z,5.47
2019-03-27T10:19:38.239Z,6.05
2019-03-27T10:22:06.866Z,4.35
2019-03-27T10:24:35.452Z,6.62
2019-03-27T10:27:04.140Z,5.37
2019-03-27T10:29:32.757Z,5.53
2019-03-27T10:32:01.756Z,4.53
2019-03-27T10:34:30.377Z,4.10
2019-03-27T10:36:59.111Z,6.87
2019-03-27T10:39:27.699Z,2.90
2019-03-27T10:41:56.318Z,4.63
2019-03-27T10:44:24.883Z,5.20
2019-03-27T10:46:53.596Z,4.10
2019-03-27T10:49:22.143Z,5.10
2019-03-27T10:51:50.800Z,4.27
2019-03-27T10:54:19.463Z,3.33
2019-03-27T10:56:49.427Z,5.67
2019-03-27T10:59:18.059Z,4.10
2019-03-27T11:01:46.703Z,5.33
2019-03-27T11:04:15.267Z,5.70
2019-03-27T11:06:43.817Z,2.97
2019-03-27T11:09:12.545Z,3.63
2019-03-27T11:11:41.081Z,5.00
2019-03-27T11:14:09.626Z,3.97
2019-03-27T11:16:38.642Z,5.23
2019-03-27T11:19:07.261Z,4.93
2019-03-27T11:21:35.804Z,4.50
2019-03-27T11:24:04.527Z,6.00
2019-03-27T11:26:33.076Z,4.83
2019-03-27T11:29:01.622Z,4.90
2019-03-27T11:31:30.637Z,8.10
2019-03-27T11:33:59.178Z,6.27
2019-03-27T11:36:27.727Z,5.80
2019-03-27T11:38:56.329Z,5.23
2019-03-27T11:41:24.879Z,5.40
2019-03-27T11:43:55.028Z,5.07
2019-03-27T11:46:23.804Z,3.63
2019-03-27T11:48:52.348Z,3.87
2019-03-27T11:51:20.900Z,5.27
2019-03-27T11:53:49.747Z,4.53
2019-03-27T11:56:37.313Z,3.73
2019-03-27T11:59:05.964Z,3.60
2019-03-27T12:01:40.754Z,3.67
2019-03-27T12:04:04.783Z,3.00
2019-03-27T12:06:33.456Z,4.27
2019-03-27T12:09:02.012Z,3.80
2019-03-27T12:11:30.698Z,3.70
2019-03-27T12:13:59.293Z,4.73
2019-03-27T12:16:27.849Z,3.97
2019-03-27T12:18:56.397Z,5.27
2019-03-27T12:21:25.004Z,25.73
2019-03-27T12:23:53.540Z,4.77
2019-03-27T12:26:22.173Z,4.53
2019-03-27T12:28:50.834Z,4.50
2019-03-27T12:31:20.052Z,4.90
2019-03-27T12:33:48.606Z,3.03
2019-03-27T12:36:17.297Z,3.23
2019-03-27T12:38:45.921Z,4.47
2019-03-27T12:41:14.532Z,2.83
2019-03-27T12:43:43.132Z,2.90
2019-03-27T12:46:11.761Z,2.80
2019-03-27T12:48:40.380Z,3.67
2019-03-27T12:51:13.202Z,3.20
2019-03-27T12:53:39.300Z,5.23
2019-03-27T12:56:07.999Z,4.70
2019-03-27T12:58:36.575Z,2.37
2019-03-27T13:01:05.270Z,2.47
2019-03-27T13:03:33.960Z,4.50
2019-03-27T13:06:02.612Z,3.77
2019-03-27T13:08:31.235Z,5.37
2019-03-27T13:10:59.785Z,4.63
2019-03-27T13:13:28.464Z,3.00
2019-03-27T13:15:57.014Z,2.30
2019-03-27T13:18:27.092Z,2.43
2019-03-27T13:20:56.083Z,2.70
2019-03-27T13:23:24.746Z,2.70
2019-03-27T13:25:53.243Z,3.47
2019-03-27T13:28:21.837Z,4.43
2019-03-27T13:30:50.392Z,2.80
2019-03-27T13:33:18.955Z,3.33
2019-03-27T13:35:47.527Z,4.40
2019-03-27T13:38:16.076Z,2.65
2019-03-27T13:40:44.634Z,2.20
2019-03-27T13:43:13.209Z,2.50
2019-03-27T13:45:41.831Z,2.75
2019-03-27T13:48:10.379Z,3.22
2019-03-27T13:50:39.042Z,3.27
2019-03-27T13:53:07.736Z,2.62
2019-03-27T13:55:36.356Z,3.05
2019-03-27T13:58:05.172Z,4.83
2019-03-27T14:00:33.732Z,2.42
2019-03-27T14:03:02.426Z,3.52
2019-03-27T14:05:31.045Z,2.12
2019-03-27T14:07:59.728Z,3.37
2019-03-27T14:10:28.345Z,3.75
2019-03-27T14:12:57.394Z,3.97
2019-03-27T14:15:26.006Z,3.93
2019-03-27T14:17:54.623Z,3.73
2019-03-27T14:20:23.209Z,3.13
2019-03-27T14:22:51.909Z,2.43
2019-03-27T14:25:22.267Z,3.47
2019-03-27T14:27:51.070Z,3.50
2019-03-27T14:30:43.628Z,4.57
2019-03-27T14:33:12.218Z,2.42
2019-03-27T14:35:40.918Z,3.02
2019-03-27T14:38:09.467Z,3.10
2019-03-27T14:40:38.153Z,3.77
2019-03-27T14:43:06.704Z,1.67
2019-03-27T14:45:35.392Z,3.72
2019-03-27T14:48:04.479Z,3.25
2019-03-27T14:50:33.111Z,3.30
2019-03-27T14:53:01.647Z,3.22
2019-03-27T14:55:30.371Z,3.17
2019-03-27T14:57:58.961Z,2.45
2019-03-27T15:00:27.579Z,4.10
2019-03-27T15:02:56.319Z,5.33
2019-03-27T15:05:24.939Z,4.63
2019-03-27T15:07:53.496Z,4.73
2019-03-27T15:10:22.468Z,2.33
2019-03-27T15:12:51.000Z,2.70
2019-03-27T15:15:19.688Z,3.43
2019-03-27T15:17:48.275Z,4.73
2019-03-27T15:20:16.904Z,3.23
2019-03-27T15:22:45.457Z,4.27
2019-03-27T15:25:14.761Z,2.30
2019-03-27T15:27:43.310Z,2.07
2019-03-27T15:30:13.406Z,3.80
2019-03-27T15:32:42.116Z,2.63
2019-03-27T15:35:11.515Z,2.60
2019-03-27T15:37:40.063Z,1.87
2019-03-27T15:40:09.190Z,3.27
2019-03-27T15:42:38.116Z,3.00
2019-03-27T15:45:10.421Z,4.27
2019-03-27T15:47:39.066Z,2.53
2019-03-27T15:50:08.151Z,3.60
2019-03-27T15:52:37.252Z,2.97
2019-03-27T15:55:06.272Z,3.77
2019-03-27T15:57:34.818Z,3.03
2019-03-27T16:00:05.208Z,1.60
2019-03-27T16:02:33.862Z,3.10
2019-03-27T16:05:02.408Z,2.07
2019-03-27T16:07:31.423Z,4.07
2019-03-27T16:10:00.746Z,2.10
2019-03-27T16:12:29.371Z,3.67
2019-03-27T16:14:57.919Z,3.67
2019-03-27T16:17:26.605Z,2.90
2019-03-27T16:19:55.223Z,2.00
2019-03-27T16:22:23.779Z,12.53
2019-03-27T16:24:52.358Z,2.95
2019-03-27T16:27:20.908Z,2.25
2019-03-27T16:29:49.575Z,2.40
2019-03-27T16:32:18.131Z,10.37
2019-03-27T16:34:46.692Z,5.63
2019-03-27T16:37:15.260Z,3.30
2019-03-27T16:39:43.882Z,5.20
2019-03-27T16:42:12.557Z,3.70
2019-03-27T16:44:41.115Z,6.10
2019-03-27T16:47:09.793Z,2.40
2019-03-27T16:49:38.415Z,4.13
2019-03-27T16:52:07.109Z,5.27
2019-03-27T16:54:36.095Z,5.57
2019-03-27T16:57:04.720Z,2.53
2019-03-27T16:59:33.410Z,2.83
2019-03-27T17:02:01.996Z,4.53
2019-03-27T17:04:30.546Z,4.00
2019-03-27T17:06:59.214Z,1.80
2019-03-27T17:09:27.756Z,2.47
2019-03-27T17:11:56.299Z,3.77
2019-03-27T17:14:24.890Z,2.53
2019-03-27T17:16:53.512Z,3.73
2019-03-27T17:19:22.173Z,2.10
2019-03-27T17:21:50.722Z,4.33
2019-03-27T17:24:19.272Z,3.67
2019-03-27T17:26:47.849Z,3.00
2019-03-27T17:29:16.471Z,3.37
2019-03-27T17:31:45.052Z,4.53
2019-03-27T17:34:13.755Z,2.73
2019-03-27T17:36:42.423Z,2.63
2019-03-27T17:39:11.092Z,2.33
2019-03-27T17:41:39.653Z,1.93
2019-03-27T17:44:08.271Z,3.03
2019-03-27T17:46:36.849Z,3.47
2019-03-27T17:49:05.552Z,3.80
2019-03-27T17:51:34.151Z,3.47
2019-03-27T17:54:02.916Z,3.30
2019-03-27T17:56:31.464Z,3.17
2019-03-27T17:59:00.016Z,3.63
2019-03-27T18:01:28.986Z,2.20
2019-03-27T18:03:57.527Z,3.30
2019-03-27T18:06:26.105Z,2.83
2019-03-27T18:08:54.726Z,3.37
2019-03-27T18:11:23.277Z,6.73
2019-03-27T18:13:51.833Z,6.40
2019-03-27T18:16:20.408Z,5.17
2019-03-27T18:18:48.960Z,5.23
2019-03-27T18:21:17.576Z,5.33
2019-03-27T18:23:46.808Z,5.60
2019-03-27T18:26:15.439Z,8.93
2019-03-27T18:28:43.986Z,12.07
2019-03-27T18:31:13.005Z,6.53
2019-03-27T18:33:41.565Z,9.90
2019-03-27T18:36:10.119Z,8.87
2019-03-27T18:38:38.764Z,13.30
2019-03-27T18:41:07.327Z,12.47
2019-03-27T18:43:35.872Z,11.57
2019-03-27T18:46:04.587Z,17.13
2019-03-27T18:48:33.133Z,12.80
2019-03-27T18:51:01.688Z,7.97
2019-03-27T18:53:30.263Z,7.13
2019-03-27T18:55:58.815Z,7.53
2019-03-27T18:58:27.385Z,6.07
2019-03-27T19:00:56.374Z,5.83
2019-03-27T19:03:24.998Z,6.80
2019-03-27T19:05:53.616Z,4.03
2019-03-27T19:08:22.262Z,5.97
2019-03-27T19:10:50.811Z,3.70
2019-03-27T19:13:19.364Z,3.77
2019-03-27T19:15:47.942Z,4.60
2019-03-27T19:18:16.490Z,3.73
2019-03-27T19:20:45.175Z,4.07
2019-03-27T19:23:14.176Z,5.00
2019-03-27T19:25:42.807Z,6.27
2019-03-27T19:28:11.483Z,4.73
2019-03-27T19:30:40.217Z,5.50
2019-03-27T19:33:08.843Z,5.40
2019-03-27T19:35:37.401Z,8.00
2019-03-27T19:38:05.981Z,7.13
2019-03-27T19:40:34.592Z,6.87
2019-03-27T19:43:03.260Z,9.03
2019-03-27T19:45:31.815Z,10.53
2019-03-27T19:48:00.372Z,12.60
2019-03-27T19:50:29.022Z,6.43
2019-03-27T19:52:57.579Z,9.93
2019-03-27T19:55:26.251Z,7.17
2019-03-27T19:57:54.795Z,11.00
2019-03-27T20:00:23.949Z,18.07
2019-03-27T20:02:52.592Z,14.63
2019-03-27T20:05:21.152Z,10.03
2019-03-27T20:07:49.925Z,7.83
2019-03-27T20:10:18.611Z,6.70
2019-03-27T20:12:47.235Z,6.33
2019-03-27T20:15:16.331Z,8.83
2019-03-27T20:17:45.033Z,8.50
2019-03-27T20:20:14.018Z,6.80
2019-03-27T20:22:42.671Z,8.87
2019-03-27T20:25:14.682Z,6.60
2019-03-27T20:27:41.939Z,9.53
2019-03-27T20:30:16.628Z,9.30
2019-03-27T20:32:45.247Z,6.30
2019-03-27T20:35:13.875Z,8.47
2019-03-27T20:37:42.473Z,9.80
2019-03-27T20:40:13.024Z,6.37
2019-03-27T20:42:41.705Z,6.30
2019-03-27T20:45:10.591Z,10.63
2019-03-27T20:47:39.147Z,7.53
2019-03-27T20:50:08.126Z,6.53
2019-03-27T20:52:37.057Z,7.00
2019-03-27T20:55:07.518Z,8.37
2019-03-27T20:57:36.069Z,6.97
2019-03-27T21:00:07.615Z,9.57
2019-03-27T21:02:38.767Z,7.43
2019-03-27T21:05:08.355Z,10.50
2019-03-27T21:07:36.931Z,9.40
2019-03-27T21:10:09.199Z,8.10
2019-03-27T21:12:38.122Z,7.90
2019-03-27T21:15:07.803Z,10.30
2019-03-27T21:17:36.415Z,10.60
2019-03-27T21:20:06.635Z,7.93
2019-03-27T21:22:35.173Z,7.20
2019-03-27T21:25:09.072Z,7.97
2019-03-27T21:27:36.108Z,6.90
2019-03-27T21:30:09.667Z,12.67
2019-03-27T21:32:38.280Z,6.40
2019-03-27T21:35:07.764Z,5.93
2019-03-27T21:37:36.476Z,5.37
2019-03-27T21:40:06.859Z,9.23
2019-03-27T21:42:35.509Z,7.37
2019-03-27T21:45:07.069Z,12.10
2019-03-27T21:47:35.663Z,10.13
2019-03-27T21:50:06.355Z,8.50
2019-03-27T21:52:34.906Z,5.13
2019-03-27T21:55:04.476Z,8.33
2019-03-27T21:57:33.060Z,11.10
2019-03-27T22:00:01.642Z,8.60
2019-03-27T22:02:30.139Z,9.77
2019-03-27T22:04:58.719Z,7.47
2019-03-27T22:07:27.340Z,7.77
2019-03-27T22:09:55.894Z,10.53
2019-03-27T22:12:24.492Z,8.23
2019-03-27T22:14:53.040Z,11.10
2019-03-27T22:17:21.585Z,13.07
2019-03-27T22:19:50.183Z,10.40
2019-03-27T22:22:31.085Z,11.30
2019-03-27T22:25:00.392Z,10.20
2019-03-27T22:27:29.057Z,8.80
2019-03-27T22:29:57.793Z,11.97
2019-03-27T22:32:26.632Z,10.43
2019-03-27T22:34:55.365Z,9.57
2019-03-27T22:37:24.123Z,9.43
2019-03-27T22:39:52.897Z,6.93
2019-03-27T22:42:21.600Z,11.63
2019-03-27T22:44:50.284Z,14.60
2019-03-27T22:47:19.103Z,8.80
2019-03-27T22:49:47.783Z,10.87
2019-03-27T22:52:16.476Z,10.77
2019-03-27T22:54:45.140Z,9.90
2019-03-27T22:57:13.775Z,8.80
2019-03-27T22:59:42.413Z,13.17
2019-03-27T23:02:11.524Z,12.63
2019-03-27T23:04:40.446Z,11.17
2019-03-27T23:07:09.426Z,12.13
2019-03-27T23:09:38.072Z,8.67
2019-03-27T23:12:06.817Z,9.40
2019-03-27T23:14:35.451Z,9.83
2019-03-27T23:17:04.608Z,10.43
2019-03-27T23:19:33.173Z,11.83
2019-03-27T23:22:01.873Z,11.57
2019-03-27T23:24:30.609Z,9.37
2019-03-27T23:26:59.300Z,15.07
2019-03-27T23:29:28.343Z,10.97
2019-03-27T23:31:57.077Z,10.60
2019-03-27T23:34:25.929Z,10.13
2019-03-27T23:36:54.778Z,9.77
2019-03-27T23:39:24.137Z,9.77
2019-03-27T23:41:53.090Z,10.17
2019-03-27T23:44:22.068Z,9.83
2019-03-27T23:46:50.940Z,12.17
2019-03-27T23:49:20.214Z,10.30
2019-03-27T23:51:48.772Z,11.83
2019-03-27T23:54:17.659Z,12.40
2019-03-27T23:56:46.285Z,12.93
2019-03-27T23:59:14.833Z,9.27
